sensor_id;sensor_type;location;lat;lon;timestamp;P1;durP1;ratioP1;P2;durP2;ratioP2
61356;SDS011;47227;46.752;23.576;2022-08-01T00:02:57;5.50;;;1.50;;
61356;SDS011;47227;46.752;23.576;2022-08-01T00:06:15;5.80;;;1.50;;
61356;SDS011;47227;46.752;23.576;2022-08-01T00:09:32;4.30;;;1.20;;
61356;SDS011;47227;46.752;23.576;2022-08-01T00:12:50;2.40;;;1.80;;
61356;SDS011;47227;46.752;23.576;2022-08-01T00:16:25;1.60;;;1.50;;
61356;SDS011;47227;46.752;23.576;2022-08-01T00:19:51;2.60;;;1.40;;
61356;SDS011;47227;46.752;23.576;2022-08-01T00:23:18;1.80;;;1.70;;
61356;SDS011;47227;46.752;23.576;2022-08-01T00:26:31;3.30;;;1.50;;
61356;SDS011;47227;46.752;23.576;2022-08-01T00:29:43;1.80;;;1.40;;
61356;SDS011;47227;46.752;23.576;2022-08-01T00:32:32;1.70;;;1.40;;
61356;SDS011;47227;46.752;23.576;2022-08-01T00:35:00;1.90;;;1.40;;
61356;SDS011;47227;46.752;23.576;2022-08-01T00:37:28;3.70;;;1.30;;
61356;SDS011;47227;46.752;23.576;2022-08-01T00:39:56;1.80;;;1.40;;
61356;SDS011;47227;46.752;23.576;2022-08-01T00:42:24;1.80;;;1.30;;
61356;SDS011;47227;46.752;23.576;2022-08-01T00:44:52;5.70;;;1.20;;
61356;SDS011;47227;46.752;23.576;2022-08-01T00:47:20;1.10;;;1.00;;
61356;SDS011;47227;46.752;23.576;2022-08-01T00:49:48;2.20;;;1.00;;
61356;SDS011;47227;46.752;23.576;2022-08-01T00:52:16;3.20;;;1.20;;
61356;SDS011;47227;46.752;23.576;2022-08-01T00:54:44;6.40;;;1.30;;
61356;SDS011;47227;46.752;23.576;2022-08-01T00:57:12;2.60;;;1.00;;
61356;SDS011;47227;46.752;23.576;2022-08-01T00:59:42;5.40;;;1.20;;
61356;SDS011;47227;46.752;23.576;2022-08-01T01:02:10;4.60;;;1.30;;
61356;SDS011;47227;46.752;23.576;2022-08-01T01:04:42;2.70;;;1.50;;
61356;SDS011;47227;46.752;23.576;2022-08-01T01:07:14;5.90;;;1.10;;
61356;SDS011;47227;46.752;23.576;2022-08-01T01:12:59;3.40;;;1.30;;
61356;SDS011;47227;46.752;23.576;2022-08-01T01:27:14;2.10;;;1.10;;
61356;SDS011;47227;46.752;23.576;2022-08-01T01:34:00;2.60;;;0.90;;
61356;SDS011;47227;46.752;23.576;2022-08-01T01:37:18;1.10;;;1.00;;
61356;SDS011;47227;46.752;23.576;2022-08-01T01:40:52;0.80;;;0.80;;
61356;SDS011;47227;46.752;23.576;2022-08-01T01:44:07;0.80;;;0.80;;
61356;SDS011;47227;46.752;23.576;2022-08-01T01:47:17;1.70;;;0.90;;
61356;SDS011;47227;46.752;23.576;2022-08-01T01:50:32;0.90;;;0.80;;
61356;SDS011;47227;46.752;23.576;2022-08-01T01:53:52;3.40;;;1.20;;
61356;SDS011;47227;46.752;23.576;2022-08-01T01:57:07;1.30;;;1.10;;
61356;SDS011;47227;46.752;23.576;2022-08-01T02:00:26;4.50;;;0.90;;
61356;SDS011;47227;46.752;23.576;2022-08-01T02:04:02;3.80;;;1.00;;
61356;SDS011;47227;46.752;23.576;2022-08-01T02:07:14;0.70;;;0.70;;
61356;SDS011;47227;46.752;23.576;2022-08-01T02:10:30;2.50;;;0.80;;
61356;SDS011;47227;46.752;23.576;2022-08-01T02:13:41;2.80;;;0.90;;
61356;SDS011;47227;46.752;23.576;2022-08-01T02:16:55;4.40;;;1.00;;
61356;SDS011;47227;46.752;23.576;2022-08-01T02:20:09;1.20;;;1.00;;
61356;SDS011;47227;46.752;23.576;2022-08-01T02:26:47;1.50;;;1.20;;
61356;SDS011;47227;46.752;23.576;2022-08-01T02:36:57;1.10;;;1.00;;
61356;SDS011;47227;46.752;23.576;2022-08-01T02:40:13;1.60;;;1.00;;
61356;SDS011;47227;46.752;23.576;2022-08-01T02:43:59;3.30;;;1.00;;
61356;SDS011;47227;46.752;23.576;2022-08-01T02:47:08;0.90;;;0.90;;
61356;SDS011;47227;46.752;23.576;2022-08-01T02:50:17;2.80;;;0.90;;
61356;SDS011;47227;46.752;23.576;2022-08-01T02:57:16;1.00;;;0.80;;
61356;SDS011;47227;46.752;23.576;2022-08-01T03:00:35;1.00;;;1.00;;
61356;SDS011;47227;46.752;23.576;2022-08-01T03:03:48;1.20;;;0.90;;
61356;SDS011;47227;46.752;23.576;2022-08-01T03:07:03;1.60;;;1.20;;
61356;SDS011;47227;46.752;23.576;2022-08-01T03:10:23;1.70;;;1.20;;
61356;SDS011;47227;46.752;23.576;2022-08-01T03:13:34;2.40;;;1.60;;
61356;SDS011;47227;46.752;23.576;2022-08-01T03:16:53;2.40;;;1.20;;
61356;SDS011;47227;46.752;23.576;2022-08-01T03:20:08;3.60;;;1.30;;
61356;SDS011;47227;46.752;23.576;2022-08-01T03:23:28;3.40;;;1.80;;
61356;SDS011;47227;46.752;23.576;2022-08-01T03:26:40;1.50;;;1.00;;
61356;SDS011;47227;46.752;23.576;2022-08-01T03:30:12;1.30;;;1.20;;
61356;SDS011;47227;46.752;23.576;2022-08-01T03:33:23;2.70;;;1.20;;
61356;SDS011;47227;46.752;23.576;2022-08-01T03:36:32;1.00;;;0.80;;
61356;SDS011;47227;46.752;23.576;2022-08-01T03:39:47;1.30;;;1.00;;
61356;SDS011;47227;46.752;23.576;2022-08-01T03:43:30;1.30;;;1.20;;
61356;SDS011;47227;46.752;23.576;2022-08-01T03:46:47;5.10;;;1.20;;
61356;SDS011;47227;46.752;23.576;2022-08-01T03:50:00;1.50;;;1.10;;
61356;SDS011;47227;46.752;23.576;2022-08-01T03:53:10;1.90;;;1.40;;
61356;SDS011;47227;46.752;23.576;2022-08-01T03:56:24;2.00;;;1.40;;
61356;SDS011;47227;46.752;23.576;2022-08-01T03:59:56;1.70;;;1.30;;
61356;SDS011;47227;46.752;23.576;2022-08-01T04:03:08;2.80;;;1.30;;
61356;SDS011;47227;46.752;23.576;2022-08-01T04:06:40;1.30;;;1.20;;
61356;SDS011;47227;46.752;23.576;2022-08-01T04:09:50;1.50;;;1.40;;
61356;SDS011;47227;46.752;23.576;2022-08-01T04:13:05;1.30;;;1.10;;
61356;SDS011;47227;46.752;23.576;2022-08-01T04:16:15;4.10;;;1.10;;
61356;SDS011;47227;46.752;23.576;2022-08-01T04:19:33;3.40;;;1.00;;
61356;SDS011;47227;46.752;23.576;2022-08-01T04:22:42;3.60;;;1.30;;
61356;SDS011;47227;46.752;23.576;2022-08-01T04:25:53;1.60;;;1.40;;
61356;SDS011;47227;46.752;23.576;2022-08-01T04:29:24;1.40;;;1.20;;
61356;SDS011;47227;46.752;23.576;2022-08-01T04:32:33;5.10;;;1.20;;
61356;SDS011;47227;46.752;23.576;2022-08-01T04:35:43;1.90;;;1.40;;
61356;SDS011;47227;46.752;23.576;2022-08-01T04:38:52;1.50;;;1.10;;
61356;SDS011;47227;46.752;23.576;2022-08-01T04:42:11;1.20;;;0.90;;
61356;SDS011;47227;46.752;23.576;2022-08-01T04:45:20;2.80;;;0.70;;
61356;SDS011;47227;46.752;23.576;2022-08-01T04:48:34;4.40;;;0.90;;
61356;SDS011;47227;46.752;23.576;2022-08-01T04:51:52;2.00;;;0.80;;
61356;SDS011;47227;46.752;23.576;2022-08-01T04:55:03;2.10;;;0.60;;
61356;SDS011;47227;46.752;23.576;2022-08-01T04:58:15;1.20;;;0.80;;
61356;SDS011;47227;46.752;23.576;2022-08-01T05:01:24;1.30;;;0.80;;
61356;SDS011;47227;46.752;23.576;2022-08-01T05:04:42;1.20;;;1.00;;
61356;SDS011;47227;46.752;23.576;2022-08-01T05:07:54;2.20;;;0.70;;
61356;SDS011;47227;46.752;23.576;2022-08-01T05:11:23;0.70;;;0.70;;
61356;SDS011;47227;46.752;23.576;2022-08-01T05:14:29;1.40;;;1.00;;
61356;SDS011;47227;46.752;23.576;2022-08-01T05:17:58;1.20;;;1.10;;
61356;SDS011;47227;46.752;23.576;2022-08-01T05:24:35;1.30;;;1.10;;
61356;SDS011;47227;46.752;23.576;2022-08-01T05:27:42;2.10;;;0.80;;
61356;SDS011;47227;46.752;23.576;2022-08-01T05:30:58;0.60;;;0.60;;
61356;SDS011;47227;46.752;23.576;2022-08-01T05:34:07;1.20;;;1.00;;
61356;SDS011;47227;46.752;23.576;2022-08-01T05:37:16;2.60;;;0.70;;
61356;SDS011;47227;46.752;23.576;2022-08-01T05:40:25;0.70;;;0.70;;
61356;SDS011;47227;46.752;23.576;2022-08-01T05:43:34;4.70;;;1.00;;
61356;SDS011;47227;46.752;23.576;2022-08-01T05:46:45;1.40;;;0.90;;
61356;SDS011;47227;46.752;23.576;2022-08-01T05:49:53;0.70;;;0.70;;
61356;SDS011;47227;46.752;23.576;2022-08-01T05:53:24;0.90;;;0.80;;
61356;SDS011;47227;46.752;23.576;2022-08-01T05:56:36;2.00;;;0.70;;
61356;SDS011;47227;46.752;23.576;2022-08-01T06:00:03;1.00;;;0.90;;
61356;SDS011;47227;46.752;23.576;2022-08-01T06:03:37;1.90;;;0.80;;
61356;SDS011;47227;46.752;23.576;2022-08-01T06:07:11;2.80;;;1.40;;
61356;SDS011;47227;46.752;23.576;2022-08-01T06:10:36;1.20;;;0.70;;
61356;SDS011;47227;46.752;23.576;2022-08-01T06:13:49;2.40;;;1.00;;
61356;SDS011;47227;46.752;23.576;2022-08-01T06:17:02;1.90;;;0.90;;
61356;SDS011;47227;46.752;23.576;2022-08-01T06:20:11;1.10;;;0.90;;
61356;SDS011;47227;46.752;23.576;2022-08-01T06:23:29;2.60;;;0.90;;
61356;SDS011;47227;46.752;23.576;2022-08-01T06:27:09;1.10;;;0.90;;
61356;SDS011;47227;46.752;23.576;2022-08-01T06:30:25;0.90;;;0.70;;
61356;SDS011;47227;46.752;23.576;2022-08-01T06:33:38;2.80;;;0.80;;
61356;SDS011;47227;46.752;23.576;2022-08-01T06:36:53;2.00;;;0.80;;
61356;SDS011;47227;46.752;23.576;2022-08-01T06:40:26;2.60;;;1.00;;
61356;SDS011;47227;46.752;23.576;2022-08-01T06:44:02;0.90;;;0.90;;
61356;SDS011;47227;46.752;23.576;2022-08-01T06:47:22;1.10;;;0.90;;
61356;SDS011;47227;46.752;23.576;2022-08-01T06:50:35;2.00;;;1.10;;
61356;SDS011;47227;46.752;23.576;2022-08-01T06:53:56;1.50;;;1.00;;
61356;SDS011;47227;46.752;23.576;2022-08-01T06:57:28;3.20;;;0.90;;
61356;SDS011;47227;46.752;23.576;2022-08-01T07:04:56;2.20;;;0.90;;
61356;SDS011;47227;46.752;23.576;2022-08-01T07:07:56;1.10;;;0.80;;
61356;SDS011;47227;46.752;23.576;2022-08-01T07:11:17;1.30;;;1.00;;
61356;SDS011;47227;46.752;23.576;2022-08-01T07:14:47;3.40;;;1.00;;
61356;SDS011;47227;46.752;23.576;2022-08-01T07:17:59;2.60;;;0.90;;
61356;SDS011;47227;46.752;23.576;2022-08-01T07:21:09;1.00;;;0.90;;
61356;SDS011;47227;46.752;23.576;2022-08-01T07:24:37;2.50;;;0.90;;
61356;SDS011;47227;46.752;23.576;2022-08-01T07:27:54;1.90;;;0.80;;
61356;SDS011;47227;46.752;23.576;2022-08-01T07:30:53;1.00;;;0.70;;
61356;SDS011;47227;46.752;23.576;2022-08-01T07:34:25;1.00;;;0.60;;
61356;SDS011;47227;46.752;23.576;2022-08-01T07:38:07;1.20;;;0.80;;
61356;SDS011;47227;46.752;23.576;2022-08-01T07:40:39;1.80;;;0.70;;
61356;SDS011;47227;46.752;23.576;2022-08-01T07:43:08;6.70;;;0.80;;
61356;SDS011;47227;46.752;23.576;2022-08-01T07:53:36;0.80;;;0.80;;
61356;SDS011;47227;46.752;23.576;2022-08-01T07:57:07;1.20;;;0.80;;
61356;SDS011;47227;46.752;23.576;2022-08-01T08:00:42;1.20;;;0.70;;
61356;SDS011;47227;46.752;23.576;2022-08-01T08:07:45;1.70;;;0.80;;
61356;SDS011;47227;46.752;23.576;2022-08-01T08:10:56;1.20;;;0.80;;
61356;SDS011;47227;46.752;23.576;2022-08-01T08:25:07;0.80;;;0.60;;
61356;SDS011;47227;46.752;23.576;2022-08-01T08:28:31;1.00;;;0.60;;
61356;SDS011;47227;46.752;23.576;2022-08-01T08:32:07;3.70;;;0.70;;
61356;SDS011;47227;46.752;23.576;2022-08-01T08:35:25;2.00;;;0.60;;
61356;SDS011;47227;46.752;23.576;2022-08-01T08:38:36;3.70;;;1.30;;
61356;SDS011;47227;46.752;23.576;2022-08-01T08:42:04;3.50;;;0.70;;
61356;SDS011;47227;46.752;23.576;2022-08-01T08:45:51;1.10;;;0.70;;
61356;SDS011;47227;46.752;23.576;2022-08-01T08:49:16;5.90;;;0.90;;
61356;SDS011;47227;46.752;23.576;2022-08-01T08:52:40;2.00;;;1.00;;
61356;SDS011;47227;46.752;23.576;2022-08-01T08:55:53;0.70;;;0.70;;
61356;SDS011;47227;46.752;23.576;2022-08-01T08:59:44;3.10;;;0.60;;
61356;SDS011;47227;46.752;23.576;2022-08-01T09:04:03;1.40;;;0.60;;
61356;SDS011;47227;46.752;23.576;2022-08-01T09:07:49;0.60;;;0.60;;
61356;SDS011;47227;46.752;23.576;2022-08-01T09:11:00;0.50;;;0.50;;
61356;SDS011;47227;46.752;23.576;2022-08-01T09:21:57;3.40;;;0.80;;
61356;SDS011;47227;46.752;23.576;2022-08-01T09:30:25;2.50;;;0.60;;
61356;SDS011;47227;46.752;23.576;2022-08-01T09:33:28;0.50;;;0.40;;
61356;SDS011;47227;46.752;23.576;2022-08-01T09:36:26;2.10;;;0.60;;
61356;SDS011;47227;46.752;23.576;2022-08-01T09:39:55;3.00;;;0.50;;
61356;SDS011;47227;46.752;23.576;2022-08-01T09:43:30;4.50;;;0.60;;
61356;SDS011;47227;46.752;23.576;2022-08-01T09:47:14;0.80;;;0.60;;
61356;SDS011;47227;46.752;23.576;2022-08-01T09:50:27;1.90;;;0.50;;
61356;SDS011;47227;46.752;23.576;2022-08-01T09:53:49;1.30;;;0.70;;
61356;SDS011;47227;46.752;23.576;2022-08-01T09:56:39;0.70;;;0.60;;
61356;SDS011;47227;46.752;23.576;2022-08-01T09:59:52;1.30;;;0.60;;
61356;SDS011;47227;46.752;23.576;2022-08-01T10:03:23;0.90;;;0.70;;
61356;SDS011;47227;46.752;23.576;2022-08-01T10:06:32;0.60;;;0.60;;
61356;SDS011;47227;46.752;23.576;2022-08-01T10:09:48;2.60;;;0.50;;
61356;SDS011;47227;46.752;23.576;2022-08-01T10:12:17;0.70;;;0.50;;
61356;SDS011;47227;46.752;23.576;2022-08-01T10:15:25;0.80;;;0.50;;
61356;SDS011;47227;46.752;23.576;2022-08-01T10:18:54;0.60;;;0.60;;
61356;SDS011;47227;46.752;23.576;2022-08-01T10:22:11;1.50;;;0.60;;
61356;SDS011;47227;46.752;23.576;2022-08-01T10:25:03;1.60;;;0.60;;
61356;SDS011;47227;46.752;23.576;2022-08-01T10:28:34;1.10;;;0.50;;
61356;SDS011;47227;46.752;23.576;2022-08-01T10:31:07;0.50;;;0.50;;
61356;SDS011;47227;46.752;23.576;2022-08-01T10:34:04;2.50;;;0.50;;
61356;SDS011;47227;46.752;23.576;2022-08-01T10:37:40;1.60;;;0.60;;
61356;SDS011;47227;46.752;23.576;2022-08-01T10:41:00;2.50;;;0.60;;
61356;SDS011;47227;46.752;23.576;2022-08-01T10:43:53;4.20;;;0.80;;
61356;SDS011;47227;46.752;23.576;2022-08-01T10:46:23;4.00;;;0.70;;
61356;SDS011;47227;46.752;23.576;2022-08-01T10:49:26;3.30;;;0.90;;
61356;SDS011;47227;46.752;23.576;2022-08-01T10:52:37;0.60;;;0.60;;
61356;SDS011;47227;46.752;23.576;2022-08-01T10:55:58;0.40;;;0.40;;
61356;SDS011;47227;46.752;23.576;2022-08-01T10:59:00;0.60;;;0.50;;
61356;SDS011;47227;46.752;23.576;2022-08-01T11:02:34;0.60;;;0.60;;
61356;SDS011;47227;46.752;23.576;2022-08-01T11:06:40;0.50;;;0.50;;
61356;SDS011;47227;46.752;23.576;2022-08-01T11:09:49;0.50;;;0.50;;
61356;SDS011;47227;46.752;23.576;2022-08-01T11:16:49;1.00;;;0.50;;
61356;SDS011;47227;46.752;23.576;2022-08-01T11:20:11;1.60;;;0.60;;
61356;SDS011;47227;46.752;23.576;2022-08-01T11:23:20;0.90;;;0.60;;
61356;SDS011;47227;46.752;23.576;2022-08-01T11:26:34;2.60;;;0.70;;
61356;SDS011;47227;46.752;23.576;2022-08-01T11:33:11;1.40;;;0.50;;
61356;SDS011;47227;46.752;23.576;2022-08-01T11:40:23;0.70;;;0.70;;
61356;SDS011;47227;46.752;23.576;2022-08-01T11:43:31;0.90;;;0.60;;
61356;SDS011;47227;46.752;23.576;2022-08-01T11:49:49;3.60;;;0.70;;
61356;SDS011;47227;46.752;23.576;2022-08-01T11:52:49;0.80;;;0.60;;
61356;SDS011;47227;46.752;23.576;2022-08-01T11:56:07;2.20;;;0.70;;
61356;SDS011;47227;46.752;23.576;2022-08-01T11:59:38;1.50;;;0.90;;
61356;SDS011;47227;46.752;23.576;2022-08-01T12:13:06;4.10;;;0.70;;
61356;SDS011;47227;46.752;23.576;2022-08-01T12:16:40;1.00;;;0.80;;
61356;SDS011;47227;46.752;23.576;2022-08-01T12:34:24;1.40;;;0.60;;
61356;SDS011;47227;46.752;23.576;2022-08-01T12:37:22;1.60;;;0.80;;
61356;SDS011;47227;46.752;23.576;2022-08-01T12:41:28;2.40;;;0.70;;
61356;SDS011;47227;46.752;23.576;2022-08-01T12:44:12;4.70;;;0.70;;
61356;SDS011;47227;46.752;23.576;2022-08-01T12:47:33;1.00;;;0.70;;
61356;SDS011;47227;46.752;23.576;2022-08-01T12:50:12;0.60;;;0.60;;
61356;SDS011;47227;46.752;23.576;2022-08-01T12:53:20;0.70;;;0.50;;
61356;SDS011;47227;46.752;23.576;2022-08-01T12:57:36;0.70;;;0.60;;
61356;SDS011;47227;46.752;23.576;2022-08-01T13:01:03;3.70;;;0.70;;
61356;SDS011;47227;46.752;23.576;2022-08-01T13:52:28;0.60;;;0.60;;
61356;SDS011;47227;46.752;23.576;2022-08-01T13:55:00;0.70;;;0.70;;
61356;SDS011;47227;46.752;23.576;2022-08-01T13:57:27;1.40;;;0.70;;
61356;SDS011;47227;46.752;23.576;2022-08-01T14:00:06;1.10;;;0.70;;
61356;SDS011;47227;46.752;23.576;2022-08-01T14:02:39;0.90;;;0.50;;
61356;SDS011;47227;46.752;23.576;2022-08-01T14:05:11;0.60;;;0.50;;
61356;SDS011;47227;46.752;23.576;2022-08-01T14:07:38;2.00;;;0.90;;
61356;SDS011;47227;46.752;23.576;2022-08-01T14:10:07;2.60;;;0.70;;
61356;SDS011;47227;46.752;23.576;2022-08-01T14:12:47;0.70;;;0.60;;
61356;SDS011;47227;46.752;23.576;2022-08-01T14:15:14;1.50;;;0.80;;
61356;SDS011;47227;46.752;23.576;2022-08-01T14:18:01;2.40;;;0.70;;
61356;SDS011;47227;46.752;23.576;2022-08-01T14:20:28;3.80;;;0.60;;
61356;SDS011;47227;46.752;23.576;2022-08-01T14:22:57;1.90;;;0.70;;
61356;SDS011;47227;46.752;23.576;2022-08-01T14:25:25;0.80;;;0.80;;
61356;SDS011;47227;46.752;23.576;2022-08-01T14:28:12;0.70;;;0.70;;
61356;SDS011;47227;46.752;23.576;2022-08-01T14:30:39;3.00;;;0.70;;
61356;SDS011;47227;46.752;23.576;2022-08-01T14:33:07;1.90;;;0.70;;
61356;SDS011;47227;46.752;23.576;2022-08-01T14:35:34;1.00;;;0.90;;
61356;SDS011;47227;46.752;23.576;2022-08-01T14:38:21;1.20;;;0.80;;
61356;SDS011;47227;46.752;23.576;2022-08-01T14:41:00;0.60;;;0.60;;
61356;SDS011;47227;46.752;23.576;2022-08-01T14:43:29;2.20;;;1.20;;
61356;SDS011;47227;46.752;23.576;2022-08-01T14:46:00;1.00;;;0.70;;
61356;SDS011;47227;46.752;23.576;2022-08-01T14:48:29;1.10;;;0.70;;
61356;SDS011;47227;46.752;23.576;2022-08-01T14:50:56;0.80;;;0.60;;
61356;SDS011;47227;46.752;23.576;2022-08-01T14:53:25;3.70;;;0.60;;
61356;SDS011;47227;46.752;23.576;2022-08-01T14:55:52;0.70;;;0.70;;
61356;SDS011;47227;46.752;23.576;2022-08-01T14:58:18;0.60;;;0.60;;
61356;SDS011;47227;46.752;23.576;2022-08-01T15:00:45;0.80;;;0.60;;
61356;SDS011;47227;46.752;23.576;2022-08-01T15:03:13;0.70;;;0.70;;
61356;SDS011;47227;46.752;23.576;2022-08-01T15:05:39;2.90;;;0.50;;
61356;SDS011;47227;46.752;23.576;2022-08-01T15:08:06;0.90;;;0.60;;
61356;SDS011;47227;46.752;23.576;2022-08-01T15:10:33;1.20;;;0.70;;
61356;SDS011;47227;46.752;23.576;2022-08-01T15:13:00;1.00;;;0.60;;
61356;SDS011;47227;46.752;23.576;2022-08-01T15:15:27;0.40;;;0.40;;
61356;SDS011;47227;46.752;23.576;2022-08-01T15:17:54;1.00;;;0.50;;
61356;SDS011;47227;46.752;23.576;2022-08-01T15:20:21;0.90;;;0.70;;
61356;SDS011;47227;46.752;23.576;2022-08-01T15:22:49;0.70;;;0.70;;
61356;SDS011;47227;46.752;23.576;2022-08-01T15:25:16;0.50;;;0.50;;
61356;SDS011;47227;46.752;23.576;2022-08-01T15:27:42;0.90;;;0.60;;
61356;SDS011;47227;46.752;23.576;2022-08-01T15:30:09;0.60;;;0.50;;
61356;SDS011;47227;46.752;23.576;2022-08-01T15:32:36;0.80;;;0.60;;
61356;SDS011;47227;46.752;23.576;2022-08-01T15:35:03;1.00;;;0.50;;
61356;SDS011;47227;46.752;23.576;2022-08-01T15:37:30;0.50;;;0.50;;
61356;SDS011;47227;46.752;23.576;2022-08-01T15:39:57;1.90;;;0.70;;
61356;SDS011;47227;46.752;23.576;2022-08-01T15:42:24;2.40;;;0.70;;
61356;SDS011;47227;46.752;23.576;2022-08-01T15:44:53;3.80;;;0.70;;
61356;SDS011;47227;46.752;23.576;2022-08-01T15:47:20;0.60;;;0.50;;
61356;SDS011;47227;46.752;23.576;2022-08-01T15:49:48;1.20;;;0.60;;
61356;SDS011;47227;46.752;23.576;2022-08-01T15:52:18;0.80;;;0.60;;
61356;SDS011;47227;46.752;23.576;2022-08-01T15:54:48;0.70;;;0.60;;
61356;SDS011;47227;46.752;23.576;2022-08-01T15:57:15;0.60;;;0.60;;
61356;SDS011;47227;46.752;23.576;2022-08-01T15:59:42;1.00;;;0.60;;
61356;SDS011;47227;46.752;23.576;2022-08-01T16:02:09;1.20;;;0.80;;
61356;SDS011;47227;46.752;23.576;2022-08-01T16:04:36;0.80;;;0.60;;
61356;SDS011;47227;46.752;23.576;2022-08-01T16:07:05;0.60;;;0.60;;
61356;SDS011;47227;46.752;23.576;2022-08-01T16:09:32;0.90;;;0.60;;
61356;SDS011;47227;46.752;23.576;2022-08-01T16:11:59;0.80;;;0.70;;
61356;SDS011;47227;46.752;23.576;2022-08-01T16:14:26;0.60;;;0.60;;
61356;SDS011;47227;46.752;23.576;2022-08-01T16:16:52;1.40;;;0.70;;
61356;SDS011;47227;46.752;23.576;2022-08-01T16:19:19;1.60;;;0.70;;
61356;SDS011;47227;46.752;23.576;2022-08-01T16:21:47;2.00;;;0.70;;
61356;SDS011;47227;46.752;23.576;2022-08-01T16:24:13;1.10;;;0.70;;
61356;SDS011;47227;46.752;23.576;2022-08-01T16:26:40;0.70;;;0.70;;
61356;SDS011;47227;46.752;23.576;2022-08-01T16:29:08;1.20;;;0.70;;
61356;SDS011;47227;46.752;23.576;2022-08-01T16:31:34;1.10;;;0.70;;
61356;SDS011;47227;46.752;23.576;2022-08-01T16:34:07;5.00;;;1.10;;
61356;SDS011;47227;46.752;23.576;2022-08-01T16:36:35;2.30;;;0.70;;
61356;SDS011;47227;46.752;23.576;2022-08-01T16:39:02;1.40;;;1.00;;
61356;SDS011;47227;46.752;23.576;2022-08-01T16:41:30;0.70;;;0.60;;
61356;SDS011;47227;46.752;23.576;2022-08-01T16:43:56;0.80;;;0.60;;
61356;SDS011;47227;46.752;23.576;2022-08-01T16:46:23;1.00;;;0.80;;
61356;SDS011;47227;46.752;23.576;2022-08-01T16:48:52;3.80;;;0.80;;
61356;SDS011;47227;46.752;23.576;2022-08-01T16:51:19;1.00;;;0.80;;
61356;SDS011;47227;46.752;23.576;2022-08-01T16:53:46;2.40;;;0.80;;
61356;SDS011;47227;46.752;23.576;2022-08-01T16:56:12;0.80;;;0.70;;
61356;SDS011;47227;46.752;23.576;2022-08-01T16:58:39;0.70;;;0.70;;
61356;SDS011;47227;46.752;23.576;2022-08-01T17:01:06;2.20;;;1.00;;
61356;SDS011;47227;46.752;23.576;2022-08-01T17:03:54;0.70;;;0.60;;
61356;SDS011;47227;46.752;23.576;2022-08-01T17:06:27;0.80;;;0.80;;
61356;SDS011;47227;46.752;23.576;2022-08-01T17:08:54;1.20;;;1.10;;
61356;SDS011;47227;46.752;23.576;2022-08-01T17:11:21;1.10;;;0.80;;
61356;SDS011;47227;46.752;23.576;2022-08-01T17:13:47;1.70;;;1.10;;
61356;SDS011;47227;46.752;23.576;2022-08-01T17:16:14;1.00;;;0.90;;
61356;SDS011;47227;46.752;23.576;2022-08-01T17:18:41;1.20;;;0.80;;
61356;SDS011;47227;46.752;23.576;2022-08-01T17:21:08;1.00;;;0.90;;
61356;SDS011;47227;46.752;23.576;2022-08-01T17:23:34;1.10;;;0.90;;
61356;SDS011;47227;46.752;23.576;2022-08-01T17:26:02;4.70;;;1.00;;
61356;SDS011;47227;46.752;23.576;2022-08-01T17:28:29;1.10;;;1.00;;
61356;SDS011;47227;46.752;23.576;2022-08-01T17:30:57;3.60;;;1.60;;
61356;SDS011;47227;46.752;23.576;2022-08-01T17:33:23;1.10;;;1.00;;
61356;SDS011;47227;46.752;23.576;2022-08-01T17:36:10;1.20;;;0.90;;
61356;SDS011;47227;46.752;23.576;2022-08-01T17:38:37;3.00;;;1.20;;
61356;SDS011;47227;46.752;23.576;2022-08-01T17:41:03;7.10;;;1.20;;
61356;SDS011;47227;46.752;23.576;2022-08-01T17:43:30;1.60;;;1.20;;
61356;SDS011;47227;46.752;23.576;2022-08-01T17:45:57;1.40;;;1.20;;
61356;SDS011;47227;46.752;23.576;2022-08-01T17:48:25;1.80;;;1.10;;
61356;SDS011;47227;46.752;23.576;2022-08-01T17:50:53;1.80;;;1.20;;
61356;SDS011;47227;46.752;23.576;2022-08-01T17:53:21;2.40;;;1.50;;
61356;SDS011;47227;46.752;23.576;2022-08-01T17:55:50;1.20;;;1.00;;
61356;SDS011;47227;46.752;23.576;2022-08-01T17:58:23;2.70;;;1.40;;
61356;SDS011;47227;46.752;23.576;2022-08-01T18:01:17;1.40;;;1.00;;
61356;SDS011;47227;46.752;23.576;2022-08-01T18:04:12;1.40;;;1.30;;
61356;SDS011;47227;46.752;23.576;2022-08-01T18:07:01;3.10;;;1.10;;
61356;SDS011;47227;46.752;23.576;2022-08-01T18:09:45;4.90;;;1.80;;
61356;SDS011;47227;46.752;23.576;2022-08-01T18:12:37;3.70;;;1.80;;
61356;SDS011;47227;46.752;23.576;2022-08-01T18:16:10;1.60;;;1.50;;
61356;SDS011;47227;46.752;23.576;2022-08-01T18:19:11;2.40;;;2.20;;
61356;SDS011;47227;46.752;23.576;2022-08-01T18:21:57;1.40;;;1.20;;
61356;SDS011;47227;46.752;23.576;2022-08-01T18:24:54;2.80;;;1.20;;
61356;SDS011;47227;46.752;23.576;2022-08-01T18:27:22;2.40;;;1.30;;
61356;SDS011;47227;46.752;23.576;2022-08-01T18:29:48;2.30;;;1.80;;
61356;SDS011;47227;46.752;23.576;2022-08-01T18:32:15;2.10;;;1.50;;
61356;SDS011;47227;46.752;23.576;2022-08-01T18:35:02;3.30;;;1.80;;
61356;SDS011;47227;46.752;23.576;2022-08-01T18:37:38;1.60;;;1.40;;
61356;SDS011;47227;46.752;23.576;2022-08-01T18:40:20;2.30;;;1.60;;
61356;SDS011;47227;46.752;23.576;2022-08-01T18:42:49;2.30;;;1.70;;
61356;SDS011;47227;46.752;23.576;2022-08-01T18:45:17;3.50;;;1.50;;
61356;SDS011;47227;46.752;23.576;2022-08-01T18:47:49;2.00;;;1.40;;
61356;SDS011;47227;46.752;23.576;2022-08-01T18:50:16;1.40;;;1.30;;
61356;SDS011;47227;46.752;23.576;2022-08-01T18:52:43;3.20;;;1.60;;
61356;SDS011;47227;46.752;23.576;2022-08-01T18:55:10;2.00;;;1.40;;
61356;SDS011;47227;46.752;23.576;2022-08-01T18:57:37;2.00;;;1.40;;
61356;SDS011;47227;46.752;23.576;2022-08-01T19:00:08;2.10;;;1.30;;
61356;SDS011;47227;46.752;23.576;2022-08-01T20:41:25;1.70;;;1.60;;
61356;SDS011;47227;46.752;23.576;2022-08-01T20:44:09;4.20;;;1.60;;
61356;SDS011;47227;46.752;23.576;2022-08-01T20:46:38;1.60;;;1.50;;
61356;SDS011;47227;46.752;23.576;2022-08-01T20:49:06;2.00;;;1.70;;
61356;SDS011;47227;46.752;23.576;2022-08-01T20:51:45;2.20;;;1.80;;
61356;SDS011;47227;46.752;23.576;2022-08-01T20:54:15;1.60;;;1.50;;
61356;SDS011;47227;46.752;23.576;2022-08-01T20:56:58;1.90;;;1.70;;
61356;SDS011;47227;46.752;23.576;2022-08-01T20:59:33;7.50;;;2.10;;
61356;SDS011;47227;46.752;23.576;2022-08-01T21:06:07;2.40;;;1.70;;
61356;SDS011;47227;46.752;23.576;2022-08-01T21:26:45;3.50;;;1.40;;
61356;SDS011;47227;46.752;23.576;2022-08-01T21:30:23;1.70;;;1.60;;
61356;SDS011;47227;46.752;23.576;2022-08-01T21:32:52;3.00;;;1.50;;
61356;SDS011;47227;46.752;23.576;2022-08-01T21:35:21;1.60;;;1.40;;
61356;SDS011;47227;46.752;23.576;2022-08-01T21:37:50;3.20;;;1.50;;
61356;SDS011;47227;46.752;23.576;2022-08-01T21:40:24;1.70;;;1.20;;
61356;SDS011;47227;46.752;23.576;2022-08-01T21:42:51;2.70;;;1.40;;
61356;SDS011;47227;46.752;23.576;2022-08-01T21:45:21;2.90;;;1.50;;
61356;SDS011;47227;46.752;23.576;2022-08-01T21:47:50;2.20;;;1.70;;
61356;SDS011;47227;46.752;23.576;2022-08-01T21:50:21;2.10;;;1.40;;
61356;SDS011;47227;46.752;23.576;2022-08-01T21:56:27;1.70;;;1.50;;
61356;SDS011;47227;46.752;23.576;2022-08-01T21:59:07;1.40;;;1.30;;
61356;SDS011;47227;46.752;23.576;2022-08-01T22:04:47;1.80;;;1.70;;
61356;SDS011;47227;46.752;23.576;2022-08-01T22:07:15;1.50;;;1.40;;
61356;SDS011;47227;46.752;23.576;2022-08-01T22:09:44;2.00;;;1.70;;
61356;SDS011;47227;46.752;23.576;2022-08-01T22:12:14;3.10;;;1.70;;
61356;SDS011;47227;46.752;23.576;2022-08-01T22:14:46;1.50;;;1.40;;